createdAt,value
2023-02-13T00:07:50.289Z,87.23
2023-02-13T00:10:24.062Z,87.58
2023-02-13T00:13:09.133Z,88.89
2023-02-13T00:15:50.442Z,88.70
2023-02-13T00:21:21.899Z,89.33
2023-02-13T00:24:12.872Z,90.16
2023-02-13T00:32:17.474Z,90.40
2023-02-13T00:37:43.142Z,90.25
2023-02-13T00:43:17.288Z,91.59
2023-02-13T00:45:58.560Z,91.13
2023-02-13T00:54:27.941Z,92.27
2023-02-13T00:57:19.150Z,91.07
2023-02-13T00:59:55.051Z,91.52
2023-02-13T01:02:24.804Z,91.92
2023-02-13T01:04:58.436Z,92.42
2023-02-13T01:07:33.065Z,92.75
2023-02-13T01:10:01.972Z,92.31
2023-02-13T01:12:32.822Z,91.85
2023-02-13T01:15:02.127Z,91.61
2023-02-13T01:17:36.659Z,92.12
2023-02-13T01:20:07.419Z,92.33
2023-02-13T01:22:38.598Z,92.19
2023-02-13T01:25:08.478Z,93.69
2023-02-13T01:27:39.564Z,92.91
2023-02-13T01:30:16.645Z,93.50
2023-02-13T01:32:50.986Z,92.73
2023-02-13T01:35:19.848Z,92.77
2023-02-13T01:37:57.938Z,93.13
2023-02-13T01:40:35.043Z,93.53
2023-02-13T01:43:20.867Z,93.77
2023-02-13T01:46:01.948Z,93.41
2023-02-13T01:48:33.616Z,92.73
2023-02-13T01:51:15.048Z,94.10
2023-02-13T01:54:04.920Z,94.02
2023-02-13T01:57:01.116Z,93.89
2023-02-13T01:59:41.875Z,93.87
2023-02-13T02:02:29.522Z,93.48
2023-02-13T02:08:20.507Z,93.88
2023-02-13T02:11:06.908Z,94.22
2023-02-13T02:13:35.393Z,93.92
2023-02-13T02:16:05.615Z,93.45
2023-02-13T02:18:35.415Z,93.84
2023-02-13T02:21:30.980Z,92.85
2023-02-13T02:24:42.033Z,93.55
2023-02-13T02:27:48.039Z,94.09
2023-02-13T02:31:06.990Z,94.01
2023-02-13T02:34:10.458Z,93.93
2023-02-13T02:36:58.339Z,93.39
2023-02-13T02:40:06.955Z,94.71
2023-02-13T02:43:14.324Z,94.73
2023-02-13T02:45:53.872Z,94.69
2023-02-13T02:49:20.744Z,94.50
2023-02-13T02:52:26.628Z,93.73
2023-02-13T02:55:09.119Z,93.34
2023-02-13T02:58:36.842Z,94.42
2023-02-13T03:01:33.892Z,93.79
2023-02-13T03:04:25.448Z,93.92
2023-02-13T03:07:00.944Z,94.38
2023-02-13T03:09:58.989Z,94.84
2023-02-13T03:13:08.881Z,94.96
2023-02-13T03:16:05.715Z,94.58
2023-02-13T03:18:59.865Z,94.39
2023-02-13T03:22:08.148Z,94.31
2023-02-13T03:25:34.665Z,94.58
2023-02-13T03:28:54.458Z,94.06
2023-02-13T03:31:44.945Z,93.24
2023-02-13T03:34:24.641Z,92.94
2023-02-13T03:37:28.934Z,93.04
2023-02-13T03:40:23.669Z,92.81
2023-02-13T03:43:10.966Z,92.73
2023-02-13T03:45:54.894Z,92.74
2023-02-13T03:49:13.893Z,93.87
2023-02-13T03:52:05.085Z,93.24
2023-02-13T03:55:08.961Z,92.82
2023-02-13T03:58:01.889Z,93.17
2023-02-13T04:00:39.187Z,93.48
2023-02-13T04:03:32.136Z,93.09
2023-02-13T04:06:26.983Z,93.09
2023-02-13T04:08:56.540Z,93.51
2023-02-13T04:12:06.563Z,93.26
2023-02-13T04:14:48.880Z,93.12
2023-02-13T04:17:27.426Z,93.07
2023-02-13T04:19:57.403Z,93.26
2023-02-13T04:22:26.644Z,93.25
2023-02-13T04:24:54.684Z,93.24
2023-02-13T04:27:28.736Z,92.76
2023-02-13T04:30:01.548Z,92.78
2023-02-13T04:32:35.699Z,92.80
2023-02-13T04:35:06.122Z,92.42
2023-02-13T04:37:39.976Z,92.55
2023-02-13T04:40:09.790Z,92.93
2023-02-13T04:42:37.655Z,92.86
2023-02-13T04:45:06.739Z,92.30
2023-02-13T04:47:36.770Z,92.21
2023-02-13T04:50:07.020Z,93.58
2023-02-13T04:52:46.354Z,93.32
2023-02-13T04:55:15.402Z,93.87
2023-02-13T04:57:44.424Z,94.09
2023-02-13T05:00:14.494Z,94.27
2023-02-13T05:02:44.613Z,93.90
2023-02-13T05:05:13.863Z,94.37
2023-02-13T05:07:43.336Z,93.97
2023-02-13T05:10:14.820Z,92.98
2023-02-13T05:12:43.934Z,93.15
2023-02-13T05:15:14.767Z,92.60
2023-02-13T05:17:47.572Z,92.83
2023-02-13T05:20:17.034Z,92.34
2023-02-13T05:23:14.577Z,92.86
2023-02-13T05:25:43.925Z,93.01
2023-02-13T05:28:32.826Z,93.37
2023-02-13T05:31:03.979Z,92.24
2023-02-13T05:33:33.145Z,92.39
2023-02-13T05:36:01.385Z,92.50
2023-02-13T05:38:31.100Z,91.99
2023-02-13T05:41:01.027Z,92.52
2023-02-13T05:43:31.023Z,91.90
2023-02-13T05:46:06.309Z,91.91
2023-02-13T05:48:36.073Z,91.68
2023-02-13T05:51:07.905Z,90.95
2023-02-13T05:53:38.388Z,90.58
2023-02-13T05:56:08.298Z,90.35
2023-02-13T05:58:37.691Z,90.82
2023-02-13T06:10:04.449Z,89.78
2023-02-13T06:33:01.576Z,88.96
2023-02-13T06:35:40.377Z,87.94
2023-02-13T06:44:06.162Z,84.98
2023-02-13T06:52:25.449Z,84.66
2023-02-13T07:06:52.394Z,82.16
2023-02-13T07:12:33.637Z,80.41
2023-02-13T07:15:10.029Z,80.67
2023-02-13T07:21:06.665Z,80.99
2023-02-13T07:30:05.028Z,80.05
2023-02-13T07:32:36.020Z,81.31
2023-02-13T07:35:20.516Z,79.80
2023-02-13T07:37:55.598Z,79.99
2023-02-13T07:40:42.670Z,79.99
2023-02-13T07:43:13.825Z,78.98
2023-02-13T07:45:56.885Z,77.55
2023-02-13T07:48:34.283Z,78.81
2023-02-13T07:51:26.277Z,78.15
2023-02-13T07:57:08.909Z,78.00
2023-02-13T07:59:39.095Z,88.36
2023-02-13T08:02:25.255Z,77.36
2023-02-13T08:04:55.738Z,77.21
2023-02-13T08:07:34.783Z,76.85
2023-02-13T08:10:31.837Z,75.97
2023-02-13T08:13:01.224Z,77.20
2023-02-13T08:15:33.399Z,78.12
2023-02-13T08:18:04.875Z,76.23
2023-02-13T08:20:35.041Z,75.19
2023-02-13T08:23:12.076Z,73.16
2023-02-13T08:25:43.096Z,73.81
2023-02-13T08:28:12.021Z,74.95
2023-02-13T08:30:41.685Z,75.32
2023-02-13T08:36:07.865Z,73.20
2023-02-13T08:38:36.340Z,71.11
2023-02-13T08:41:06.265Z,71.73
2023-02-13T08:43:34.876Z,72.68
2023-02-13T08:46:11.509Z,70.85
2023-02-13T08:51:38.823Z,70.11
2023-02-13T08:54:08.133Z,70.31
2023-02-13T08:56:41.771Z,69.71
2023-02-13T08:59:14.387Z,71.15
2023-02-13T09:01:43.984Z,70.83
2023-02-13T09:04:19.131Z,71.47
2023-02-13T09:06:48.843Z,71.91
2023-02-13T09:09:19.834Z,71.14
2023-02-13T09:11:52.446Z,70.31
2023-02-13T09:14:24.962Z,70.41
2023-02-13T09:17:14.029Z,71.34
2023-02-13T09:19:48.456Z,70.41
2023-02-13T09:22:18.392Z,69.75
2023-02-13T09:24:48.522Z,70.69
2023-02-13T09:27:20.124Z,70.11
2023-02-13T09:29:49.379Z,70.27
2023-02-13T09:32:17.712Z,70.28
2023-02-13T09:34:47.189Z,69.94
2023-02-13T09:37:16.690Z,67.57
2023-02-13T09:39:46.818Z,67.38
2023-02-13T09:42:34.204Z,67.04
2023-02-13T09:45:06.866Z,66.04
2023-02-13T09:47:44.728Z,64.81
2023-02-13T09:50:37.687Z,65.29
2023-02-13T09:53:24.974Z,62.14
2023-02-13T09:59:42.618Z,61.56
2023-02-13T10:02:37.077Z,59.72
2023-02-13T10:05:58.196Z,59.97
2023-02-13T10:08:45.925Z,58.72
2023-02-13T10:11:56.783Z,58.16
2023-02-13T10:14:37.797Z,58.38
2023-02-13T10:17:17.616Z,57.83
2023-02-13T10:19:55.728Z,57.23
2023-02-13T10:22:31.841Z,55.85
2023-02-13T10:25:20.586Z,56.42
2023-02-13T10:28:19.617Z,56.36
2023-02-13T10:31:13.569Z,55.98
2023-02-13T10:33:57.227Z,55.45
2023-02-13T10:36:31.856Z,54.92
2023-02-13T10:39:30.055Z,57.30
2023-02-13T10:42:31.356Z,55.26
2023-02-13T10:45:19.896Z,55.24
2023-02-13T10:48:28.209Z,54.55
2023-02-13T10:51:45.626Z,54.59
2023-02-13T10:54:42.937Z,54.97
2023-02-13T10:58:04.001Z,55.22
2023-02-13T11:01:38.781Z,56.97
2023-02-13T11:04:17.774Z,57.14
2023-02-13T11:07:15.837Z,56.41
2023-02-13T11:09:52.936Z,56.07
2023-02-13T11:12:43.277Z,57.39
2023-02-13T11:15:34.460Z,56.51
2023-02-13T11:18:19.740Z,58.42
2023-02-13T11:21:08.011Z,59.24
2023-02-13T11:23:48.625Z,58.26
2023-02-13T11:26:43.496Z,59.38
2023-02-13T11:29:34.036Z,58.91
2023-02-13T11:32:17.227Z,57.75
2023-02-13T11:34:51.470Z,56.96
2023-02-13T11:37:29.987Z,57.49
2023-02-13T11:40:34.734Z,58.50
2023-02-13T11:43:15.478Z,57.67
2023-02-13T11:46:01.011Z,57.82
2023-02-13T11:48:34.259Z,57.70
2023-02-13T11:51:04.896Z,57.47
2023-02-13T11:57:05.702Z,59.47
2023-02-13T11:59:45.912Z,60.00
2023-02-13T12:02:47.992Z,59.37
2023-02-13T12:05:26.589Z,59.19
2023-02-13T12:08:01.851Z,57.38
2023-02-13T12:10:45.616Z,56.61
2023-02-13T12:13:27.951Z,56.79
2023-02-13T12:19:41.384Z,58.38
2023-02-13T12:22:42.251Z,57.42
2023-02-13T12:26:06.513Z,60.04
2023-02-13T12:29:09.002Z,59.77
2023-02-13T12:32:00.829Z,61.34
2023-02-13T12:35:02.887Z,60.45
2023-02-13T12:38:03.455Z,60.64
2023-02-13T12:41:12.084Z,61.86
2023-02-13T12:44:36.446Z,61.84
2023-02-13T12:47:33.278Z,60.46
2023-02-13T12:50:49.550Z,60.89
2023-02-13T12:54:00.328Z,60.93
2023-02-13T12:56:40.876Z,60.79
2023-02-13T12:59:53.045Z,61.37
2023-02-13T13:03:08.005Z,61.80
2023-02-13T13:06:15.161Z,61.18
2023-02-13T13:09:28.943Z,60.98
2023-02-13T13:12:31.207Z,62.70
2023-02-13T13:15:37.255Z,62.27
2023-02-13T13:18:29.798Z,62.26
2023-02-13T13:24:40.974Z,62.58
2023-02-13T13:27:24.956Z,62.00
2023-02-13T13:30:07.124Z,61.83
2023-02-13T13:32:39.038Z,62.72
2023-02-13T13:35:14.565Z,61.54
2023-02-13T13:38:06.978Z,62.10
2023-02-13T13:41:00.692Z,62.30
2023-02-13T13:44:00.574Z,62.26
2023-02-13T13:46:54.905Z,63.70
2023-02-13T13:49:58.004Z,63.37
2023-02-13T13:52:39.835Z,63.09
2023-02-13T13:55:50.303Z,64.28
2023-02-13T14:04:46.054Z,65.32
2023-02-13T14:07:29.868Z,65.99
2023-02-13T14:10:00.881Z,66.67
2023-02-13T14:12:37.681Z,67.20
2023-02-13T14:15:40.417Z,67.83
2023-02-13T14:18:14.460Z,68.37
2023-02-13T14:20:51.718Z,69.84
2023-02-13T14:23:33.515Z,69.90
2023-02-13T14:26:34.291Z,69.74
2023-02-13T14:29:11.657Z,70.83
2023-02-13T14:31:51.157Z,71.54
2023-02-13T14:34:32.733Z,71.57
2023-02-13T14:37:33.287Z,70.81
2023-02-13T14:40:20.354Z,71.81
2023-02-13T14:43:20.441Z,71.81
2023-02-13T14:49:21.256Z,72.22
2023-02-13T14:52:08.784Z,72.32
2023-02-13T14:54:57.078Z,72.76
2023-02-13T14:57:44.682Z,72.44
2023-02-13T15:00:45.195Z,72.57
2023-02-13T15:03:30.701Z,72.54
2023-02-13T15:06:36.138Z,73.67
2023-02-13T15:09:15.569Z,73.55
2023-02-13T15:11:47.727Z,73.93
2023-02-13T15:14:28.863Z,74.65
2023-02-13T15:17:16.422Z,73.85
2023-02-13T15:19:56.850Z,74.50
2023-02-13T15:22:46.671Z,73.68
2023-02-13T16:14:29.091Z,75.54
2023-02-13T16:28:24.159Z,71.68
2023-02-13T16:31:10.434Z,71.98
2023-02-13T16:33:48.004Z,71.35
2023-02-13T16:36:31.877Z,71.25
2023-02-13T16:39:13.000Z,70.93
2023-02-13T16:41:44.549Z,72.64
2023-02-13T16:44:33.989Z,71.54
2023-02-13T16:47:05.322Z,71.28
2023-02-13T16:49:38.788Z,71.14
2023-02-13T16:52:28.593Z,71.57
2023-02-13T16:55:08.168Z,70.44
2023-02-13T16:57:42.658Z,70.41
2023-02-13T17:00:25.616Z,70.69
2023-02-13T17:02:59.621Z,69.75
2023-02-13T17:05:31.803Z,69.95
2023-02-13T17:08:03.842Z,70.62
2023-02-13T17:10:40.299Z,70.76
2023-02-13T17:13:19.766Z,70.72
2023-02-13T17:15:49.109Z,70.42
2023-02-13T17:18:23.950Z,70.66
2023-02-13T18:17:25.670Z,68.34
2023-02-13T18:19:56.044Z,68.01
2023-02-13T18:22:28.847Z,68.14
2023-02-13T18:25:04.468Z,68.11
2023-02-13T18:27:33.619Z,68.26
2023-02-13T18:30:26.900Z,68.06
2023-02-13T18:32:59.133Z,68.15
2023-02-13T18:35:29.456Z,67.54
2023-02-13T18:37:58.531Z,68.16
2023-02-13T18:40:29.009Z,67.81
2023-02-13T18:43:01.360Z,68.11
2023-02-13T18:45:53.745Z,68.15
2023-02-13T18:48:37.902Z,67.35
2023-02-13T18:51:06.912Z,67.94
2023-02-13T18:53:41.547Z,67.77
2023-02-13T18:56:15.556Z,66.78
2023-02-13T18:58:44.955Z,67.12
2023-02-13T19:01:19.922Z,67.27
2023-02-13T19:03:54.564Z,66.63
2023-02-13T19:06:31.201Z,67.06
2023-02-13T19:09:07.212Z,66.52
2023-02-13T19:11:39.231Z,66.83
2023-02-13T19:14:26.995Z,67.30
2023-02-13T19:17:11.598Z,67.00
2023-02-13T19:22:28.838Z,67.80
2023-02-13T19:25:10.386Z,68.79
2023-02-13T19:30:44.357Z,69.39
2023-02-13T19:33:30.497Z,69.94
2023-02-13T19:39:05.588Z,72.45
2023-02-13T19:41:51.477Z,72.92
2023-02-13T19:44:36.052Z,73.37
2023-02-13T20:05:09.330Z,80.34
2023-02-13T20:11:10.995Z,82.19
2023-02-13T20:13:42.537Z,82.21
2023-02-13T20:16:24.225Z,83.55
2023-02-13T20:19:00.208Z,84.67
2023-02-13T20:27:13.113Z,88.22
2023-02-13T20:29:59.091Z,87.78
2023-02-13T20:32:44.235Z,87.41
2023-02-13T20:35:14.403Z,88.42
2023-02-13T20:37:49.051Z,89.33
2023-02-13T20:40:21.036Z,89.96
2023-02-13T20:45:59.126Z,92.80
2023-02-13T20:48:34.550Z,93.29
2023-02-13T20:51:13.505Z,94.58
2023-02-13T20:53:48.122Z,95.27
2023-02-13T20:56:24.370Z,97.00
2023-02-13T21:04:57.477Z,97.68
2023-02-13T21:07:32.788Z,99.09
2023-02-13T21:10:08.898Z,99.82
2023-02-13T21:12:42.594Z,100.00
2023-02-13T21:15:13.410Z,100.00
2023-02-13T21:17:47.378Z,100.00
2023-02-13T21:23:33.765Z,100.00
2023-02-13T21:29:26.017Z,100.00
2023-02-13T21:32:11.965Z,100.00
2023-02-13T21:34:45.403Z,100.00
2023-02-13T21:37:47.026Z,100.00
2023-02-13T21:40:20.398Z,100.00
2023-02-13T21:42:55.687Z,100.00
2023-02-13T21:45:29.252Z,100.00
2023-02-13T21:48:15.817Z,100.00
2023-02-13T21:50:48.114Z,100.00
2023-02-13T21:53:20.641Z,100.00
2023-02-13T21:55:59.618Z,100.00
2023-02-13T21:58:51.089Z,100.00
2023-02-13T22:01:36.224Z,100.00
2023-02-13T22:04:15.883Z,100.00
2023-02-13T22:06:51.924Z,100.00
2023-02-13T22:09:24.106Z,100.00
2023-02-13T22:12:00.330Z,100.00
2023-02-13T22:14:34.295Z,100.00
2023-02-13T22:17:17.148Z,100.00
2023-02-13T22:19:47.345Z,100.00
2023-02-13T22:22:23.436Z,100.00
2023-02-13T22:25:07.215Z,100.00
2023-02-13T22:27:41.533Z,100.00
2023-02-13T22:30:17.551Z,100.00
2023-02-13T22:32:52.044Z,100.00
2023-02-13T22:35:26.929Z,100.00
2023-02-13T22:37:59.555Z,100.00
2023-02-13T22:40:32.640Z,100.00
2023-02-13T22:43:05.655Z,100.00
2023-02-13T22:45:38.428Z,100.00
2023-02-13T22:48:12.379Z,100.00
2023-02-13T22:50:51.325Z,100.00
2023-02-13T22:53:27.117Z,100.00
2023-02-13T22:56:07.561Z,100.00
2023-02-13T22:58:38.172Z,100.00
2023-02-13T23:01:17.886Z,100.00
2023-02-13T23:03:48.162Z,100.00
2023-02-13T23:06:20.988Z,100.00
2023-02-13T23:08:58.054Z,100.00
2023-02-13T23:11:48.528Z,100.00
2023-02-13T23:17:57.333Z,100.00
2023-02-13T23:20:31.803Z,100.00
2023-02-13T23:23:11.909Z,100.00
2023-02-13T23:25:51.776Z,100.00
2023-02-13T23:28:26.263Z,100.00
2023-02-13T23:31:06.219Z,100.00
2023-02-13T23:33:44.777Z,100.00
2023-02-13T23:36:15.637Z,100.00
2023-02-13T23:38:48.577Z,100.00
2023-02-13T23:41:37.390Z,100.00
2023-02-13T23:44:16.747Z,100.00
2023-02-13T23:46:52.612Z,100.00
2023-02-13T23:49:32.053Z,100.00
2023-02-13T23:52:01.932Z,100.00
2023-02-13T23:54:34.708Z,100.00
2023-02-13T23:57:05.433Z,100.00
2023-02-13T23:59:40.859Z,100.00
